EFJO

Joensuu Airport

Joensuu / Liperi, Finland
METAR EFJO 221720Z 18005KT 150V210 CAVOK 23/04 Q1017
Observed Flight Rules
May-22 @ 17:20 UTC (35 minutes ago) Visual Flight Rules
Wind Visibility Clouds
180° at 5 knots 10,000+ meters
  • Clear skies
Temperatures Readings
Current 23°C / 73°F
Dewpoint 4°C / 39°F
Humidity 29%
Altimeter 30.03" Hg
Pressure 1017 hPa
Elevation 117
METAR EFJO 221720Z 18005KT 150V210 CAVOK 23/04 Q1017
Observed Flight Rules
May-22 @ 17:20 UTC
(35 minutes ago)
VFR
Wind Visibility
180° at 5 knots 10,000+ meters
Clouds
  • Clear skies
Temperature Dewpoint
23°C / 73°F 4°C / 39°F
Humidity Altimeter Pressure
29% 30.03" Hg 1017 hPa